Albany, NY

6:34 AM EST on December 25, 2014 (GMT -0500)
Stony Creek | Change Station
CLOSE
Current Station
Personal Weather Station
Location: Clifton Park, NY
Elevation: 266 ft
Nearby Weather Stations
Active Advisory: Wind Advisory

Elev 266 ft 42.81 °N, 73.81 °W | Updated 10 minutes ago

Overcast
Overcast
51.0 °F
Feels Like 51.0 °F
N
6.0
Wind Variable Wind from SW
Gusts 9.0 mph

Today
High -- | Low -- °F
--% Chance of Precip.
Yesterday
High -- | Low -- °F
Precip. -- in
7:24 AM 4:26 PM
Waxing Crescent, 15% visible
Pressure 29.52 in
Visibility 10.0 miles
Clouds Few 4500 ft
Scattered Clouds 7500 ft
Mostly Cloudy 9500 ft
Overcast 14000 ft
Dew Point 43 °F
Humidity 74%
Rainfall 0.00 in
Snow Depth Not available.
UV 0 out of 12
Pollen .10 out of 12
Air Quality Not available.
Flu Activity Not available.
METAR KALB 251051Z 25014G21KT 10SM FEW045 SCT075 BKN095 OVC140 12/04 A2951 RMK AO2 PK WND 24032/1005 RAB07E17 SLP995 P0000 T01170044

More Conditions Fewer Conditions

Pressure 29.52 in
Visibility 10.0 miles
Clouds Few 4500 ft
Scattered Clouds 7500 ft
Mostly Cloudy 9500 ft
Overcast 14000 ft
Dew Point 43 °F
Humidity 74%
Rainfall 0.00 in
Snow Depth Not available.
UV 0 out of 12
Pollen .10 out of 12
Air Quality Not available.
Flu Activity Not available.
METAR KALB 251051Z 25014G21KT 10SM FEW045 SCT075 BKN095 OVC140 12/04 A2951 RMK AO2 PK WND 24032/1005 RAB07E17 SLP995 P0000 T01170044

More Conditions Fewer Conditions

10-Day Weather Forecast

Almanac

Astronomy

Dec. 25, 2014 Rise Set
Actual Time
Civil Twilight
Nautical Twilight
Astronomical Twilight
Moon
Length of Visible Light
Length of Day
Tomorrow will be .
, % of the Moon is Illuminated

Today's Extremes

State Highs State Lows

Community

WunderPhotos

Upload Photos

1,780,259 photos uploaded!

WunderBlogs® & News

Nearby

Air Quality

  Air Quality AQ Index Pollutant
Not available.

Snow Depth

Station Depth Elevation

Earthquake Activity

City Distance Mag. Time & Date
Minimum magnitude displayed is 2.5.

Coastal Water Temperatures

Place Temperature

Nearby Weather Stations